Tal Lira — 2FWW2 — position and weather

sailwx.info

Track history (hours):
 
Tides and Currents Weather Stations Pressure Air Temp Water Temp Dewpoint Dewpoint Depression Visibility Wind Speed Wind Dir Waves Ship Positions

Tal Lira

Last reported at 2018-Jun-14 06:29 UTC. Time now 2018-Jun-23 21:52 UTC.
Position N 38°56' W 076°32'.
Warning: this ship's position is 9 days out of date.

Length 19 m.

Type: Sailing vessel. MMSI: 235094909.

Date/timePositionNaut miles runAvg speedWind from/ knotsBaromVisibWave heightAir tempDewpointWater temp
2018-Jun-14 06:29N 38°56' W 076°32'3 6.5
2018-Jun-14 06:00N 38°54' W 076°29'5 6.8
2018-Jun-14 05:20N 38°50' W 076°27'  
2018-Jun-09 18:49N 26°16' W 080°04'3 7.3
2018-Jun-09 18:22N 26°13' W 080°04'3 7.4
2018-Jun-09 18:00N 26°10' W 080°04'4 7.5
2018-Jun-09 17:30N 26°07' W 080°05'2 3.2
2018-Jun-09 16:58N 26°06' W 080°07'0 0.6
2018-Jun-09 16:29N 26°06' W 080°07'0 0.0
2018-Jun-09 15:59N 26°06' W 080°07'0 0.0
2018-Jun-09 15:29N 26°06' W 080°07'0 0.0
2018-Jun-09 14:29N 26°06' W 080°07'0 0.0
2018-Jun-09 13:59N 26°06' W 080°07'2 2.4
2018-Jun-09 13:20N 26°05' W 080°07'2 4.9
2018-Jun-09 13:00N 26°06' W 080°07'0 0.0
2018-Jun-09 12:30N 26°06' W 080°07'0 0.0
2018-Jun-09 12:00N 26°06' W 080°07'0 0.0
2018-Jun-09 11:30N 26°06' W 080°07'0 0.0
2018-Jun-09 02:10N 26°06' W 080°07'0 0.0
2018-Jun-09 01:55N 26°06' W 080°07'0 0.0
2018-Jun-09 01:25N 26°06' W 080°07'0 0.0
2018-Jun-09 00:55N 26°06' W 080°07'0 0.0
2018-Jun-09 00:28N 26°06' W 080°07'0 0.0
2018-Jun-08 23:58N 26°06' W 080°07'0 0.0
2018-Jun-08 23:28N 26°06' W 080°07'0 0.0
2018-Jun-08 22:58N 26°06' W 080°07'0 0.0
2018-Jun-08 22:28N 26°06' W 080°07'0 0.0
2018-Jun-08 21:40N 26°06' W 080°07'0 0.0
2018-Jun-08 21:10N 26°06' W 080°07'0 0.0
2018-Jun-08 20:58N 26°06' W 080°07'0 0.0
2018-Jun-08 20:28N 26°06' W 080°07'0 0.0
2018-Jun-08 19:46N 26°06' W 080°07'0 0.0
2018-Jun-08 19:28N 26°06' W 080°07'0 0.0
2018-Jun-08 18:58N 26°06' W 080°07'0 0.0
2018-Jun-08 18:28N 26°06' W 080°07'0 0.0
2018-Jun-08 02:35N 26°06' W 080°07'0 0.0
2018-Jun-08 02:26N 26°06' W 080°07'0 0.0
2018-Jun-08 01:53N 26°06' W 080°07'0 0.0
2018-Jun-08 01:26N 26°06' W 080°07'0 0.0
2018-Jun-08 00:59N 26°06' W 080°07'0 0.0
2018-Jun-08 00:29N 26°06' W 080°07'0 0.0
2018-Jun-07 23:59N 26°06' W 080°07'0 0.0
2018-Jun-07 23:26N 26°06' W 080°07'0 0.0
2018-Jun-07 22:59N 26°06' W 080°07'0 0.0
2018-Jun-07 22:29N 26°06' W 080°07'0 0.0
2018-Jun-07 21:59N 26°06' W 080°07'0 0.0
2018-Jun-07 21:29N 26°06' W 080°07'0 0.0
2018-Jun-07 20:56N 26°06' W 080°07'0 0.0
2018-Jun-07 20:29N 26°06' W 080°07'0 0.0
2018-Jun-07 19:59N 26°06' W 080°07'0 0.0
2018-Jun-07 19:29N 26°06' W 080°07'0 0.0
2018-Jun-07 18:59N 26°06' W 080°07'0 0.0
2018-Jun-07 18:20N 26°06' W 080°07'0 0.0
2018-Jun-07 17:50N 26°06' W 080°07'0 0.0
2018-Jun-07 17:20N 26°06' W 080°07'0 0.0
2018-Jun-07 16:50N 26°06' W 080°07'0 0.0
2018-Jun-06 21:24N 26°06' W 080°07'0 0.0
2018-Jun-06 20:54N 26°06' W 080°07'0 0.0
2018-Jun-06 20:24N 26°06' W 080°07'0 0.0
2018-Jun-06 19:54N 26°06' W 080°07'0 0.0
2018-Jun-06 19:27N 26°06' W 080°07'0 0.0
2018-Jun-06 18:54N 26°06' W 080°07'0 0.0
2018-Jun-06 18:24N 26°06' W 080°07'0 0.0
2018-Jun-06 17:57N 26°06' W 080°07'0 0.0
2018-Jun-06 17:27N 26°06' W 080°07'0 0.0
2018-Jun-06 16:54N 26°06' W 080°07'0 0.0
2018-Jun-06 16:30N 26°06' W 080°07'0 0.0
2018-Jun-06 16:00N 26°06' W 080°07'0 0.0
2018-Jun-06 15:30N 26°06' W 080°07'  
Track history (hours):
 
Tides and Currents Weather Stations Pressure Air Temp Water Temp Dewpoint Dewpoint Depression Visibility Wind Speed Wind Dir Waves Ship Positions

Tal Lira

Last reported at 2018-Jun-14 06:29 UTC. Time now 2018-Jun-23 21:52 UTC.
Position N 38°56' W 076°32'.
Warning: this ship's position is 9 days out of date.

Length 19 m.

Type: Sailing vessel. MMSI: 235094909.

Date/timePositionNaut miles runAvg speedWind from/ knotsBaromVisibWave heightAir tempDewpointWater temp
2018-Jun-14 06:29N 38°56' W 076°32'3 6.5
2018-Jun-14 06:00N 38°54' W 076°29'5 6.8
2018-Jun-14 05:20N 38°50' W 076°27'  
2018-Jun-09 18:49N 26°16' W 080°04'3 7.3
2018-Jun-09 18:22N 26°13' W 080°04'3 7.4
2018-Jun-09 18:00N 26°10' W 080°04'4 7.5
2018-Jun-09 17:30N 26°07' W 080°05'2 3.2
2018-Jun-09 16:58N 26°06' W 080°07'0 0.6
2018-Jun-09 16:29N 26°06' W 080°07'0 0.0
2018-Jun-09 15:59N 26°06' W 080°07'0 0.0
2018-Jun-09 15:29N 26°06' W 080°07'0 0.0
2018-Jun-09 14:29N 26°06' W 080°07'0 0.0
2018-Jun-09 13:59N 26°06' W 080°07'2 2.4
2018-Jun-09 13:20N 26°05' W 080°07'2 4.9
2018-Jun-09 13:00N 26°06' W 080°07'0 0.0
2018-Jun-09 12:30N 26°06' W 080°07'0 0.0
2018-Jun-09 12:00N 26°06' W 080°07'0 0.0
2018-Jun-09 11:30N 26°06' W 080°07'0 0.0
2018-Jun-09 02:10N 26°06' W 080°07'0 0.0
2018-Jun-09 01:55N 26°06' W 080°07'0 0.0
2018-Jun-09 01:25N 26°06' W 080°07'0 0.0
2018-Jun-09 00:55N 26°06' W 080°07'0 0.0
2018-Jun-09 00:28N 26°06' W 080°07'0 0.0
2018-Jun-08 23:58N 26°06' W 080°07'0 0.0
2018-Jun-08 23:28N 26°06' W 080°07'0 0.0
2018-Jun-08 22:58N 26°06' W 080°07'0 0.0
2018-Jun-08 22:28N 26°06' W 080°07'0 0.0
2018-Jun-08 21:40N 26°06' W 080°07'0 0.0
2018-Jun-08 21:10N 26°06' W 080°07'0 0.0
2018-Jun-08 20:58N 26°06' W 080°07'0 0.0
2018-Jun-08 20:28N 26°06' W 080°07'0 0.0
2018-Jun-08 19:46N 26°06' W 080°07'0 0.0
2018-Jun-08 19:28N 26°06' W 080°07'0 0.0
2018-Jun-08 18:58N 26°06' W 080°07'0 0.0
2018-Jun-08 18:28N 26°06' W 080°07'0 0.0
2018-Jun-08 02:35N 26°06' W 080°07'0 0.0
2018-Jun-08 02:26N 26°06' W 080°07'0 0.0
2018-Jun-08 01:53N 26°06' W 080°07'0 0.0
2018-Jun-08 01:26N 26°06' W 080°07'0 0.0
2018-Jun-08 00:59N 26°06' W 080°07'0 0.0
2018-Jun-08 00:29N 26°06' W 080°07'0 0.0
2018-Jun-07 23:59N 26°06' W 080°07'0 0.0
2018-Jun-07 23:26N 26°06' W 080°07'0 0.0
2018-Jun-07 22:59N 26°06' W 080°07'0 0.0
2018-Jun-07 22:29N 26°06' W 080°07'0 0.0
2018-Jun-07 21:59N 26°06' W 080°07'0 0.0
2018-Jun-07 21:29N 26°06' W 080°07'0 0.0
2018-Jun-07 20:56N 26°06' W 080°07'0 0.0
2018-Jun-07 20:29N 26°06' W 080°07'0 0.0
2018-Jun-07 19:59N 26°06' W 080°07'0 0.0
2018-Jun-07 19:29N 26°06' W 080°07'0 0.0
2018-Jun-07 18:59N 26°06' W 080°07'0 0.0
2018-Jun-07 18:20N 26°06' W 080°07'0 0.0
2018-Jun-07 17:50N 26°06' W 080°07'0 0.0
2018-Jun-07 17:20N 26°06' W 080°07'0 0.0
2018-Jun-07 16:50N 26°06' W 080°07'0 0.0
2018-Jun-06 21:24N 26°06' W 080°07'0 0.0
2018-Jun-06 20:54N 26°06' W 080°07'0 0.0
2018-Jun-06 20:24N 26°06' W 080°07'0 0.0
2018-Jun-06 19:54N 26°06' W 080°07'0 0.0
2018-Jun-06 19:27N 26°06' W 080°07'0 0.0
2018-Jun-06 18:54N 26°06' W 080°07'0 0.0
2018-Jun-06 18:24N 26°06' W 080°07'0 0.0
2018-Jun-06 17:57N 26°06' W 080°07'0 0.0
2018-Jun-06 17:27N 26°06' W 080°07'0 0.0
2018-Jun-06 16:54N 26°06' W 080°07'0 0.0
2018-Jun-06 16:30N 26°06' W 080°07'0 0.0
2018-Jun-06 16:00N 26°06' W 080°07'0 0.0
2018-Jun-06 15:30N 26°06' W 080°07'  

Dump ship's entire track history